Haines, AK

10:55 PM AKDT on September 18, 2014 (GMT -0800)
Haines | Change Station
CLOSE
Current Station
Airport
Location: Haines,
Elevation: 16 ft
Nearby Weather Stations

Elev 16 ft 59.24 °N, 135.51 °W | Updated 4 minutes ago

Light Rain
Light Rain
52 °F
Feels Like 52 °F
N
12
Wind Variable Wind from ENE

Today
High -- | Low -- °F
--% Chance of Precip.
Yesterday
High -- | Low -- °F
Precip. -- in
6:37 AM 7:12 PM
Waning Crescent, 21% visible
Pressure 29.22 in
Visibility 7.0 miles
Clouds Overcast 2000 ft
Dew Point 50 °F
Humidity 94%
Rainfall 0.45 in
Snow Depth 3 in , 1 in , 0 in
UV 0 out of 12
Pollen Not available.
Air Quality Not available.
Flu Activity Not available.
SPECI PAHN 190651Z AUTO 06010KT 7SM -RA OVC020 11/10 A2922 RMK AO2 P0016 TSNO

More Conditions Fewer Conditions

Pressure 29.22 in
Visibility 7.0 miles
Clouds Overcast 2000 ft
Dew Point 50 °F
Humidity 94%
Rainfall 0.45 in
Snow Depth 3 in , 1 in , 0 in
UV 0 out of 12
Pollen Not available.
Air Quality Not available.
Flu Activity Not available.
SPECI PAHN 190651Z AUTO 06010KT 7SM -RA OVC020 11/10 A2922 RMK AO2 P0016 TSNO

More Conditions Fewer Conditions

10-Day Weather Forecast

Almanac

Astronomy

Sep. 18, 2014 Rise Set
Actual Time 6:37 AM AKDT 7:12 PM AKDT
Civil Twilight 5:56 AM AKDT 7:53 PM AKDT
Nautical Twilight 5:06 AM AKDT 8:43 PM AKDT
Astronomical Twilight 4:11 AM AKDT 9:37 PM AKDT
Moon 12:40 AM AKDT (9/18) 4:59 PM AKDT (9/18)
Length of Visible Light 13h 56m
Length of Day
12h 35m
Tomorrow will be 5m 14s shorter.
Waning Crescent, 21% of the Moon is Illuminated
Sep 19
Waning Crescent
Sep 24
New
Oct 1
First Quarter
Oct 8
Full
Oct 15
Last Quarter

Community

WunderPhotos

Upload Photos

1,754,575 photos uploaded!

Nearby

Snow Depth

Station Depth Elevation
MF Bradley River 3 in 2300 ft
Point Mackenzie 1 in 200 ft
Granite Creek 0 in 1240 ft
Grouse Creek Divide 1 in 700 ft
Mcneil Canyon 1 in 1320 ft

Earthquake Activity

City Distance Mag. Time & Date
No recent earthquake activity has been reported nearby.
Minimum magnitude displayed is 2.5.

Coastal Water Temperatures

Place Temperature
No Stations Reporting

Nearby Weather Stations